sensor_id;sensor_type;location;lat;lon;timestamp;P1;durP1;ratioP1;P2;durP2;ratioP2
5923;SDS011;2987;50.884;14.818;2023-04-23T00:00:50;13.40;;;6.03;;
5923;SDS011;2987;50.884;14.818;2023-04-23T00:03:17;10.60;;;6.47;;
5923;SDS011;2987;50.884;14.818;2023-04-23T00:05:45;16.87;;;7.00;;
5923;SDS011;2987;50.884;14.818;2023-04-23T00:08:12;10.77;;;6.23;;
5923;SDS011;2987;50.884;14.818;2023-04-23T00:10:40;9.93;;;6.80;;
5923;SDS011;2987;50.884;14.818;2023-04-23T00:13:06;9.20;;;6.03;;
5923;SDS011;2987;50.884;14.818;2023-04-23T00:15:32;13.43;;;6.83;;
5923;SDS011;2987;50.884;14.818;2023-04-23T00:17:58;10.00;;;6.43;;
5923;SDS011;2987;50.884;14.818;2023-04-23T00:20:24;8.63;;;6.83;;
5923;SDS011;2987;50.884;14.818;2023-04-23T00:25:16;13.43;;;7.43;;
5923;SDS011;2987;50.884;14.818;2023-04-23T00:27:42;10.47;;;7.23;;
5923;SDS011;2987;50.884;14.818;2023-04-23T00:30:08;13.47;;;8.07;;
5923;SDS011;2987;50.884;14.818;2023-04-23T00:32:34;12.50;;;7.73;;
5923;SDS011;2987;50.884;14.818;2023-04-23T00:35:00;12.83;;;7.67;;
5923;SDS011;2987;50.884;14.818;2023-04-23T00:37:26;15.70;;;7.93;;
5923;SDS011;2987;50.884;14.818;2023-04-23T00:39:52;14.53;;;6.77;;
5923;SDS011;2987;50.884;14.818;2023-04-23T00:42:18;13.93;;;7.53;;
5923;SDS011;2987;50.884;14.818;2023-04-23T00:44:44;14.63;;;7.97;;
5923;SDS011;2987;50.884;14.818;2023-04-23T00:47:11;17.63;;;9.73;;
5923;SDS011;2987;50.884;14.818;2023-04-23T00:49:39;13.23;;;9.00;;
5923;SDS011;2987;50.884;14.818;2023-04-23T00:52:06;12.67;;;8.93;;
5923;SDS011;2987;50.884;14.818;2023-04-23T00:54:32;13.87;;;8.50;;
5923;SDS011;2987;50.884;14.818;2023-04-23T00:56:58;14.47;;;8.70;;
5923;SDS011;2987;50.884;14.818;2023-04-23T00:59:27;14.10;;;8.33;;
5923;SDS011;2987;50.884;14.818;2023-04-23T01:01:53;11.17;;;7.87;;
5923;SDS011;2987;50.884;14.818;2023-04-23T01:04:20;13.03;;;8.50;;
5923;SDS011;2987;50.884;14.818;2023-04-23T01:06:48;16.23;;;8.17;;
5923;SDS011;2987;50.884;14.818;2023-04-23T01:09:14;11.63;;;7.10;;
5923;SDS011;2987;50.884;14.818;2023-04-23T01:11:42;10.47;;;7.27;;
5923;SDS011;2987;50.884;14.818;2023-04-23T01:14:09;8.30;;;6.27;;
5923;SDS011;2987;50.884;14.818;2023-04-23T01:16:36;10.13;;;6.00;;
5923;SDS011;2987;50.884;14.818;2023-04-23T01:19:05;7.20;;;5.23;;
5923;SDS011;2987;50.884;14.818;2023-04-23T01:21:33;9.87;;;5.23;;
5923;SDS011;2987;50.884;14.818;2023-04-23T01:24:02;9.57;;;4.93;;
5923;SDS011;2987;50.884;14.818;2023-04-23T01:26:29;8.83;;;5.07;;
5923;SDS011;2987;50.884;14.818;2023-04-23T01:28:55;7.63;;;4.80;;
5923;SDS011;2987;50.884;14.818;2023-04-23T01:31:24;7.13;;;5.20;;
5923;SDS011;2987;50.884;14.818;2023-04-23T01:33:50;7.13;;;5.37;;
5923;SDS011;2987;50.884;14.818;2023-04-23T01:36:20;7.60;;;5.50;;
5923;SDS011;2987;50.884;14.818;2023-04-23T01:38:50;11.13;;;5.50;;
5923;SDS011;2987;50.884;14.818;2023-04-23T01:41:17;11.40;;;5.43;;
5923;SDS011;2987;50.884;14.818;2023-04-23T01:43:44;9.77;;;5.30;;
5923;SDS011;2987;50.884;14.818;2023-04-23T01:46:11;8.90;;;5.23;;
5923;SDS011;2987;50.884;14.818;2023-04-23T01:48:37;11.67;;;5.20;;
5923;SDS011;2987;50.884;14.818;2023-04-23T01:51:03;11.33;;;5.00;;
5923;SDS011;2987;50.884;14.818;2023-04-23T01:53:30;11.83;;;5.50;;
5923;SDS011;2987;50.884;14.818;2023-04-23T01:55:56;6.70;;;4.87;;
5923;SDS011;2987;50.884;14.818;2023-04-23T01:58:22;10.27;;;4.70;;
5923;SDS011;2987;50.884;14.818;2023-04-23T02:00:50;7.03;;;4.47;;
5923;SDS011;2987;50.884;14.818;2023-04-23T02:03:16;9.13;;;4.50;;
5923;SDS011;2987;50.884;14.818;2023-04-23T02:05:43;13.37;;;4.67;;
5923;SDS011;2987;50.884;14.818;2023-04-23T02:08:09;11.97;;;4.73;;
5923;SDS011;2987;50.884;14.818;2023-04-23T02:10:36;8.33;;;4.60;;
5923;SDS011;2987;50.884;14.818;2023-04-23T02:13:02;7.20;;;4.43;;
5923;SDS011;2987;50.884;14.818;2023-04-23T02:15:28;10.53;;;4.93;;
5923;SDS011;2987;50.884;14.818;2023-04-23T02:17:54;8.07;;;4.27;;
5923;SDS011;2987;50.884;14.818;2023-04-23T02:20:20;6.90;;;4.73;;
5923;SDS011;2987;50.884;14.818;2023-04-23T02:22:47;6.47;;;4.57;;
5923;SDS011;2987;50.884;14.818;2023-04-23T02:25:15;7.63;;;4.90;;
5923;SDS011;2987;50.884;14.818;2023-04-23T02:27:42;10.33;;;4.53;;
5923;SDS011;2987;50.884;14.818;2023-04-23T02:30:10;10.93;;;4.27;;
5923;SDS011;2987;50.884;14.818;2023-04-23T02:32:37;9.97;;;4.50;;
5923;SDS011;2987;50.884;14.818;2023-04-23T02:35:04;10.33;;;4.63;;
5923;SDS011;2987;50.884;14.818;2023-04-23T02:37:31;15.90;;;4.70;;
5923;SDS011;2987;50.884;14.818;2023-04-23T02:39:57;9.93;;;4.87;;
5923;SDS011;2987;50.884;14.818;2023-04-23T02:42:23;11.30;;;4.30;;
5923;SDS011;2987;50.884;14.818;2023-04-23T02:44:50;7.87;;;4.33;;
5923;SDS011;2987;50.884;14.818;2023-04-23T02:47:18;8.53;;;4.33;;
5923;SDS011;2987;50.884;14.818;2023-04-23T02:49:47;8.63;;;4.53;;
5923;SDS011;2987;50.884;14.818;2023-04-23T02:55:17;13.73;;;4.60;;
5923;SDS011;2987;50.884;14.818;2023-04-23T02:57:43;6.63;;;4.23;;
5923;SDS011;2987;50.884;14.818;2023-04-23T03:00:10;8.07;;;4.60;;
5923;SDS011;2987;50.884;14.818;2023-04-23T03:02:39;11.20;;;4.30;;
5923;SDS011;2987;50.884;14.818;2023-04-23T03:05:06;7.07;;;3.97;;
5923;SDS011;2987;50.884;14.818;2023-04-23T03:07:32;12.03;;;4.70;;
5923;SDS011;2987;50.884;14.818;2023-04-23T03:09:58;11.30;;;4.83;;
5923;SDS011;2987;50.884;14.818;2023-04-23T03:12:24;12.73;;;4.43;;
5923;SDS011;2987;50.884;14.818;2023-04-23T03:14:50;7.03;;;4.20;;
5923;SDS011;2987;50.884;14.818;2023-04-23T03:17:16;10.20;;;4.10;;
5923;SDS011;2987;50.884;14.818;2023-04-23T03:19:42;9.40;;;4.70;;
5923;SDS011;2987;50.884;14.818;2023-04-23T03:22:08;10.27;;;4.23;;
5923;SDS011;2987;50.884;14.818;2023-04-23T03:24:35;6.47;;;4.33;;
5923;SDS011;2987;50.884;14.818;2023-04-23T03:27:02;11.93;;;4.60;;
5923;SDS011;2987;50.884;14.818;2023-04-23T03:29:28;10.13;;;4.67;;
5923;SDS011;2987;50.884;14.818;2023-04-23T03:31:54;9.63;;;4.53;;
5923;SDS011;2987;50.884;14.818;2023-04-23T03:34:21;8.17;;;4.47;;
5923;SDS011;2987;50.884;14.818;2023-04-23T03:36:47;10.63;;;4.80;;
5923;SDS011;2987;50.884;14.818;2023-04-23T03:39:15;9.50;;;4.50;;
5923;SDS011;2987;50.884;14.818;2023-04-23T03:41:48;8.20;;;4.43;;
5923;SDS011;2987;50.884;14.818;2023-04-23T03:44:16;9.57;;;4.40;;
5923;SDS011;2987;50.884;14.818;2023-04-23T03:46:44;6.47;;;4.30;;
5923;SDS011;2987;50.884;14.818;2023-04-23T03:49:10;8.07;;;4.10;;
5923;SDS011;2987;50.884;14.818;2023-04-23T03:51:37;11.70;;;4.37;;
5923;SDS011;2987;50.884;14.818;2023-04-23T03:54:03;11.37;;;4.67;;
5923;SDS011;2987;50.884;14.818;2023-04-23T03:56:33;8.50;;;4.57;;
5923;SDS011;2987;50.884;14.818;2023-04-23T03:59:10;7.93;;;4.90;;
5923;SDS011;2987;50.884;14.818;2023-04-23T04:01:36;8.27;;;4.13;;
5923;SDS011;2987;50.884;14.818;2023-04-23T04:04:02;8.13;;;4.33;;
5923;SDS011;2987;50.884;14.818;2023-04-23T04:06:30;9.30;;;4.10;;
5923;SDS011;2987;50.884;14.818;2023-04-23T04:08:57;8.53;;;4.37;;
5923;SDS011;2987;50.884;14.818;2023-04-23T04:11:23;6.87;;;4.10;;
5923;SDS011;2987;50.884;14.818;2023-04-23T04:13:49;7.30;;;4.60;;
5923;SDS011;2987;50.884;14.818;2023-04-23T04:16:15;5.80;;;4.30;;
5923;SDS011;2987;50.884;14.818;2023-04-23T04:18:59;7.57;;;4.70;;
5923;SDS011;2987;50.884;14.818;2023-04-23T04:21:25;7.10;;;4.47;;
5923;SDS011;2987;50.884;14.818;2023-04-23T04:23:52;10.80;;;4.13;;
5923;SDS011;2987;50.884;14.818;2023-04-23T04:26:18;6.10;;;4.60;;
5923;SDS011;2987;50.884;14.818;2023-04-23T04:28:44;11.97;;;4.70;;
5923;SDS011;2987;50.884;14.818;2023-04-23T04:31:12;7.53;;;4.67;;
5923;SDS011;2987;50.884;14.818;2023-04-23T04:33:40;8.10;;;4.20;;
5923;SDS011;2987;50.884;14.818;2023-04-23T04:36:06;10.40;;;4.53;;
5923;SDS011;2987;50.884;14.818;2023-04-23T04:38:34;7.07;;;4.37;;
5923;SDS011;2987;50.884;14.818;2023-04-23T04:41:02;6.53;;;3.87;;
5923;SDS011;2987;50.884;14.818;2023-04-23T04:43:29;9.80;;;4.73;;
5923;SDS011;2987;50.884;14.818;2023-04-23T04:45:57;7.47;;;4.63;;
5923;SDS011;2987;50.884;14.818;2023-04-23T04:48:24;9.80;;;4.97;;
5923;SDS011;2987;50.884;14.818;2023-04-23T04:50:50;7.27;;;4.73;;
5923;SDS011;2987;50.884;14.818;2023-04-23T04:53:16;9.17;;;4.97;;
5923;SDS011;2987;50.884;14.818;2023-04-23T04:55:42;12.13;;;4.47;;
5923;SDS011;2987;50.884;14.818;2023-04-23T04:58:08;9.87;;;4.70;;
5923;SDS011;2987;50.884;14.818;2023-04-23T05:00:34;11.40;;;5.13;;
5923;SDS011;2987;50.884;14.818;2023-04-23T05:03:00;5.70;;;4.70;;
5923;SDS011;2987;50.884;14.818;2023-04-23T05:05:52;8.40;;;4.27;;
5923;SDS011;2987;50.884;14.818;2023-04-23T05:08:21;11.27;;;4.30;;
5923;SDS011;2987;50.884;14.818;2023-04-23T05:10:47;8.57;;;4.80;;
5923;SDS011;2987;50.884;14.818;2023-04-23T05:13:15;7.40;;;4.70;;
5923;SDS011;2987;50.884;14.818;2023-04-23T05:15:41;8.63;;;4.30;;
5923;SDS011;2987;50.884;14.818;2023-04-23T05:18:08;9.03;;;4.67;;
5923;SDS011;2987;50.884;14.818;2023-04-23T05:20:35;10.30;;;4.50;;
5923;SDS011;2987;50.884;14.818;2023-04-23T05:23:02;4.97;;;4.47;;
5923;SDS011;2987;50.884;14.818;2023-04-23T05:25:28;9.70;;;4.57;;
5923;SDS011;2987;50.884;14.818;2023-04-23T05:27:55;8.97;;;4.37;;
5923;SDS011;2987;50.884;14.818;2023-04-23T05:30:22;7.43;;;4.27;;
5923;SDS011;2987;50.884;14.818;2023-04-23T05:32:48;5.90;;;4.33;;
5923;SDS011;2987;50.884;14.818;2023-04-23T05:35:14;7.00;;;4.27;;
5923;SDS011;2987;50.884;14.818;2023-04-23T05:37:40;8.87;;;4.47;;
5923;SDS011;2987;50.884;14.818;2023-04-23T05:40:07;10.87;;;4.53;;
5923;SDS011;2987;50.884;14.818;2023-04-23T05:42:34;7.30;;;4.27;;
5923;SDS011;2987;50.884;14.818;2023-04-23T05:45:01;9.53;;;4.57;;
5923;SDS011;2987;50.884;14.818;2023-04-23T05:49:55;11.60;;;4.60;;
5923;SDS011;2987;50.884;14.818;2023-04-23T05:52:22;6.83;;;4.70;;
5923;SDS011;2987;50.884;14.818;2023-04-23T05:54:48;8.23;;;4.77;;
5923;SDS011;2987;50.884;14.818;2023-04-23T05:57:14;6.63;;;4.70;;
5923;SDS011;2987;50.884;14.818;2023-04-23T05:59:40;7.27;;;4.47;;
5923;SDS011;2987;50.884;14.818;2023-04-23T06:02:06;9.43;;;4.87;;
5923;SDS011;2987;50.884;14.818;2023-04-23T06:04:33;6.17;;;4.70;;
5923;SDS011;2987;50.884;14.818;2023-04-23T06:06:59;7.30;;;4.77;;
5923;SDS011;2987;50.884;14.818;2023-04-23T06:09:25;8.67;;;4.40;;
5923;SDS011;2987;50.884;14.818;2023-04-23T06:11:51;8.50;;;4.30;;
5923;SDS011;2987;50.884;14.818;2023-04-23T06:14:17;6.23;;;4.67;;
5923;SDS011;2987;50.884;14.818;2023-04-23T06:16:43;7.47;;;4.50;;
5923;SDS011;2987;50.884;14.818;2023-04-23T06:19:09;9.10;;;4.37;;
5923;SDS011;2987;50.884;14.818;2023-04-23T06:21:36;7.60;;;4.77;;
5923;SDS011;2987;50.884;14.818;2023-04-23T06:24:03;6.90;;;4.83;;
5923;SDS011;2987;50.884;14.818;2023-04-23T06:26:30;11.23;;;4.93;;
5923;SDS011;2987;50.884;14.818;2023-04-23T06:29:00;7.60;;;4.67;;
5923;SDS011;2987;50.884;14.818;2023-04-23T06:33:56;10.10;;;5.07;;
5923;SDS011;2987;50.884;14.818;2023-04-23T06:36:22;10.20;;;5.00;;
5923;SDS011;2987;50.884;14.818;2023-04-23T06:38:48;7.40;;;5.27;;
5923;SDS011;2987;50.884;14.818;2023-04-23T06:41:14;7.70;;;4.70;;
5923;SDS011;2987;50.884;14.818;2023-04-23T06:43:40;6.93;;;5.23;;
5923;SDS011;2987;50.884;14.818;2023-04-23T06:46:27;8.20;;;5.20;;
5923;SDS011;2987;50.884;14.818;2023-04-23T06:48:53;6.37;;;4.47;;
5923;SDS011;2987;50.884;14.818;2023-04-23T06:51:19;7.07;;;4.73;;
5923;SDS011;2987;50.884;14.818;2023-04-23T06:53:45;8.83;;;5.07;;
5923;SDS011;2987;50.884;14.818;2023-04-23T06:56:11;9.03;;;5.13;;
5923;SDS011;2987;50.884;14.818;2023-04-23T06:58:38;8.70;;;4.73;;
5923;SDS011;2987;50.884;14.818;2023-04-23T07:01:13;9.60;;;4.90;;
5923;SDS011;2987;50.884;14.818;2023-04-23T07:03:39;5.77;;;4.40;;
5923;SDS011;2987;50.884;14.818;2023-04-23T07:06:09;7.83;;;5.23;;
5923;SDS011;2987;50.884;14.818;2023-04-23T07:08:34;10.53;;;4.83;;
5923;SDS011;2987;50.884;14.818;2023-04-23T07:11:00;10.07;;;4.70;;
5923;SDS011;2987;50.884;14.818;2023-04-23T07:13:26;6.60;;;4.77;;
5923;SDS011;2987;50.884;14.818;2023-04-23T07:15:52;11.73;;;4.90;;
5923;SDS011;2987;50.884;14.818;2023-04-23T07:18:18;8.53;;;4.80;;
5923;SDS011;2987;50.884;14.818;2023-04-23T07:20:44;9.00;;;4.97;;
5923;SDS011;2987;50.884;14.818;2023-04-23T07:23:10;11.03;;;5.10;;
5923;SDS011;2987;50.884;14.818;2023-04-23T07:25:36;8.10;;;4.73;;
5923;SDS011;2987;50.884;14.818;2023-04-23T07:28:02;10.00;;;5.27;;
5923;SDS011;2987;50.884;14.818;2023-04-23T07:30:29;8.20;;;4.93;;
5923;SDS011;2987;50.884;14.818;2023-04-23T07:32:55;8.47;;;4.93;;
5923;SDS011;2987;50.884;14.818;2023-04-23T07:35:21;10.00;;;5.53;;
5923;SDS011;2987;50.884;14.818;2023-04-23T07:37:47;8.43;;;4.87;;
5923;SDS011;2987;50.884;14.818;2023-04-23T07:40:20;9.00;;;4.90;;
5923;SDS011;2987;50.884;14.818;2023-04-23T07:42:46;7.77;;;4.60;;
5923;SDS011;2987;50.884;14.818;2023-04-23T07:45:13;8.63;;;4.90;;
5923;SDS011;2987;50.884;14.818;2023-04-23T07:47:39;12.20;;;5.13;;
5923;SDS011;2987;50.884;14.818;2023-04-23T07:50:06;8.00;;;5.20;;
5923;SDS011;2987;50.884;14.818;2023-04-23T07:52:33;10.73;;;5.00;;
5923;SDS011;2987;50.884;14.818;2023-04-23T07:54:59;9.50;;;5.10;;
5923;SDS011;2987;50.884;14.818;2023-04-23T07:57:24;7.87;;;4.60;;
5923;SDS011;2987;50.884;14.818;2023-04-23T07:59:51;13.53;;;5.33;;
5923;SDS011;2987;50.884;14.818;2023-04-23T08:02:16;9.13;;;4.73;;
5923;SDS011;2987;50.884;14.818;2023-04-23T08:04:48;6.90;;;4.97;;
5923;SDS011;2987;50.884;14.818;2023-04-23T08:07:14;8.30;;;4.80;;
5923;SDS011;2987;50.884;14.818;2023-04-23T08:09:40;8.73;;;5.70;;
5923;SDS011;2987;50.884;14.818;2023-04-23T08:12:07;7.70;;;5.50;;
5923;SDS011;2987;50.884;14.818;2023-04-23T08:14:32;5.83;;;4.97;;
5923;SDS011;2987;50.884;14.818;2023-04-23T08:17:01;8.87;;;5.10;;
5923;SDS011;2987;50.884;14.818;2023-04-23T08:19:27;11.47;;;4.90;;
5923;SDS011;2987;50.884;14.818;2023-04-23T08:21:56;6.37;;;4.90;;
5923;SDS011;2987;50.884;14.818;2023-04-23T08:24:22;9.10;;;5.37;;
5923;SDS011;2987;50.884;14.818;2023-04-23T08:26:48;9.20;;;4.70;;
5923;SDS011;2987;50.884;14.818;2023-04-23T08:29:14;9.27;;;5.73;;
5923;SDS011;2987;50.884;14.818;2023-04-23T08:31:40;11.50;;;5.13;;
5923;SDS011;2987;50.884;14.818;2023-04-23T08:34:06;11.90;;;5.60;;
5923;SDS011;2987;50.884;14.818;2023-04-23T08:36:32;10.20;;;5.40;;
5923;SDS011;2987;50.884;14.818;2023-04-23T08:38:58;7.23;;;5.37;;
5923;SDS011;2987;50.884;14.818;2023-04-23T08:41:26;8.30;;;5.17;;
5923;SDS011;2987;50.884;14.818;2023-04-23T08:44:06;11.83;;;5.43;;
5923;SDS011;2987;50.884;14.818;2023-04-23T08:46:47;9.87;;;5.37;;
5923;SDS011;2987;50.884;14.818;2023-04-23T08:49:15;11.77;;;5.47;;
5923;SDS011;2987;50.884;14.818;2023-04-23T08:51:47;7.63;;;5.00;;
5923;SDS011;2987;50.884;14.818;2023-04-23T08:54:17;13.27;;;5.70;;
5923;SDS011;2987;50.884;14.818;2023-04-23T08:56:50;10.90;;;5.83;;
5923;SDS011;2987;50.884;14.818;2023-04-23T08:59:17;11.03;;;5.70;;
5923;SDS011;2987;50.884;14.818;2023-04-23T09:01:45;8.97;;;5.40;;
5923;SDS011;2987;50.884;14.818;2023-04-23T09:04:11;9.50;;;5.50;;
5923;SDS011;2987;50.884;14.818;2023-04-23T09:06:41;9.03;;;5.33;;
5923;SDS011;2987;50.884;14.818;2023-04-23T09:09:08;8.07;;;5.80;;
5923;SDS011;2987;50.884;14.818;2023-04-23T09:11:35;9.53;;;5.20;;
5923;SDS011;2987;50.884;14.818;2023-04-23T09:14:02;9.47;;;5.57;;
5923;SDS011;2987;50.884;14.818;2023-04-23T09:16:28;10.83;;;5.30;;
5923;SDS011;2987;50.884;14.818;2023-04-23T09:18:54;9.87;;;5.03;;
5923;SDS011;2987;50.884;14.818;2023-04-23T09:21:21;8.67;;;4.57;;
5923;SDS011;2987;50.884;14.818;2023-04-23T09:23:49;8.97;;;5.13;;
5923;SDS011;2987;50.884;14.818;2023-04-23T09:26:19;9.93;;;5.70;;
5923;SDS011;2987;50.884;14.818;2023-04-23T09:28:48;7.20;;;5.43;;
5923;SDS011;2987;50.884;14.818;2023-04-23T09:31:19;8.07;;;5.10;;
5923;SDS011;2987;50.884;14.818;2023-04-23T09:33:50;9.33;;;5.20;;
5923;SDS011;2987;50.884;14.818;2023-04-23T09:36:20;7.63;;;5.60;;
5923;SDS011;2987;50.884;14.818;2023-04-23T09:38:54;8.60;;;5.10;;
5923;SDS011;2987;50.884;14.818;2023-04-23T09:41:23;13.20;;;5.43;;
5923;SDS011;2987;50.884;14.818;2023-04-23T09:43:53;6.40;;;4.73;;
5923;SDS011;2987;50.884;14.818;2023-04-23T09:46:36;7.63;;;4.70;;
5923;SDS011;2987;50.884;14.818;2023-04-23T09:49:06;7.00;;;4.27;;
5923;SDS011;2987;50.884;14.818;2023-04-23T09:51:36;6.90;;;4.77;;
5923;SDS011;2987;50.884;14.818;2023-04-23T09:54:03;6.53;;;4.63;;
5923;SDS011;2987;50.884;14.818;2023-04-23T09:56:48;11.47;;;5.30;;
5923;SDS011;2987;50.884;14.818;2023-04-23T09:59:19;7.30;;;5.53;;
5923;SDS011;2987;50.884;14.818;2023-04-23T10:01:48;7.83;;;5.10;;
5923;SDS011;2987;50.884;14.818;2023-04-23T10:04:18;10.07;;;5.50;;
5923;SDS011;2987;50.884;14.818;2023-04-23T10:06:48;10.73;;;5.47;;
5923;SDS011;2987;50.884;14.818;2023-04-23T10:09:21;6.80;;;4.30;;
5923;SDS011;2987;50.884;14.818;2023-04-23T10:11:52;6.97;;;4.37;;
5923;SDS011;2987;50.884;14.818;2023-04-23T10:14:20;8.97;;;4.47;;
5923;SDS011;2987;50.884;14.818;2023-04-23T10:16:47;14.67;;;4.63;;
5923;SDS011;2987;50.884;14.818;2023-04-23T10:19:20;5.97;;;4.40;;
5923;SDS011;2987;50.884;14.818;2023-04-23T10:21:55;6.30;;;4.73;;
5923;SDS011;2987;50.884;14.818;2023-04-23T10:24:26;4.83;;;4.13;;
5923;SDS011;2987;50.884;14.818;2023-04-23T10:26:56;5.43;;;4.70;;
5923;SDS011;2987;50.884;14.818;2023-04-23T10:29:26;8.43;;;5.17;;
5923;SDS011;2987;50.884;14.818;2023-04-23T10:31:55;5.13;;;4.53;;
5923;SDS011;2987;50.884;14.818;2023-04-23T10:34:23;4.97;;;3.20;;
5923;SDS011;2987;50.884;14.818;2023-04-23T10:36:50;4.83;;;3.50;;
5923;SDS011;2987;50.884;14.818;2023-04-23T10:39:18;8.63;;;3.50;;
5923;SDS011;2987;50.884;14.818;2023-04-23T10:41:46;7.33;;;3.67;;
5923;SDS011;2987;50.884;14.818;2023-04-23T10:44:13;4.77;;;3.40;;
5923;SDS011;2987;50.884;14.818;2023-04-23T10:46:49;6.17;;;3.80;;
5923;SDS011;2987;50.884;14.818;2023-04-23T10:49:17;5.47;;;3.77;;
5923;SDS011;2987;50.884;14.818;2023-04-23T10:51:44;4.53;;;3.40;;
5923;SDS011;2987;50.884;14.818;2023-04-23T10:54:13;5.33;;;3.50;;
5923;SDS011;2987;50.884;14.818;2023-04-23T10:56:41;7.00;;;3.70;;
5923;SDS011;2987;50.884;14.818;2023-04-23T11:01:50;5.90;;;3.37;;
5923;SDS011;2987;50.884;14.818;2023-04-23T11:04:20;7.43;;;3.63;;
5923;SDS011;2987;50.884;14.818;2023-04-23T11:06:49;6.73;;;3.90;;
5923;SDS011;2987;50.884;14.818;2023-04-23T11:12:05;5.57;;;3.60;;
5923;SDS011;2987;50.884;14.818;2023-04-23T11:19:29;11.47;;;4.43;;
5923;SDS011;2987;50.884;14.818;2023-04-23T11:21:57;5.17;;;4.33;;
5923;SDS011;2987;50.884;14.818;2023-04-23T11:24:26;6.60;;;4.37;;
5923;SDS011;2987;50.884;14.818;2023-04-23T11:27:05;4.30;;;3.67;;
5923;SDS011;2987;50.884;14.818;2023-04-23T11:29:33;7.83;;;4.70;;
5923;SDS011;2987;50.884;14.818;2023-04-23T11:31:58;4.97;;;4.47;;
5923;SDS011;2987;50.884;14.818;2023-04-23T11:34:25;5.17;;;4.20;;
5923;SDS011;2987;50.884;14.818;2023-04-23T11:36:52;7.43;;;4.73;;
5923;SDS011;2987;50.884;14.818;2023-04-23T11:39:19;7.43;;;4.40;;
5923;SDS011;2987;50.884;14.818;2023-04-23T11:41:48;5.13;;;3.73;;
5923;SDS011;2987;50.884;14.818;2023-04-23T11:44:14;5.40;;;4.10;;
5923;SDS011;2987;50.884;14.818;2023-04-23T11:46:41;5.83;;;4.20;;
5923;SDS011;2987;50.884;14.818;2023-04-23T11:49:07;6.53;;;4.00;;
5923;SDS011;2987;50.884;14.818;2023-04-23T11:51:34;6.17;;;4.30;;
5923;SDS011;2987;50.884;14.818;2023-04-23T11:54:07;6.33;;;4.40;;
5923;SDS011;2987;50.884;14.818;2023-04-23T11:56:32;6.50;;;4.10;;
5923;SDS011;2987;50.884;14.818;2023-04-23T11:59:00;4.70;;;4.20;;
5923;SDS011;2987;50.884;14.818;2023-04-23T12:04:18;7.93;;;4.40;;
5923;SDS011;2987;50.884;14.818;2023-04-23T12:06:46;6.83;;;4.13;;
5923;SDS011;2987;50.884;14.818;2023-04-23T12:14:06;4.47;;;4.03;;
5923;SDS011;2987;50.884;14.818;2023-04-23T12:16:35;9.07;;;4.53;;
5923;SDS011;2987;50.884;14.818;2023-04-23T12:19:03;4.90;;;4.47;;
5923;SDS011;2987;50.884;14.818;2023-04-23T12:21:31;6.03;;;4.70;;
5923;SDS011;2987;50.884;14.818;2023-04-23T12:23:58;5.93;;;4.57;;
5923;SDS011;2987;50.884;14.818;2023-04-23T12:26:27;6.90;;;4.80;;
5923;SDS011;2987;50.884;14.818;2023-04-23T12:28:54;7.20;;;5.17;;
5923;SDS011;2987;50.884;14.818;2023-04-23T12:31:25;7.50;;;4.80;;
5923;SDS011;2987;50.884;14.818;2023-04-23T12:33:55;7.37;;;4.90;;
5923;SDS011;2987;50.884;14.818;2023-04-23T12:36:25;6.47;;;4.57;;
5923;SDS011;2987;50.884;14.818;2023-04-23T12:38:53;6.40;;;4.77;;
5923;SDS011;2987;50.884;14.818;2023-04-23T12:41:19;6.67;;;4.80;;
5923;SDS011;2987;50.884;14.818;2023-04-23T12:43:46;5.93;;;4.90;;
5923;SDS011;2987;50.884;14.818;2023-04-23T12:46:14;7.83;;;5.13;;
5923;SDS011;2987;50.884;14.818;2023-04-23T12:48:40;6.17;;;5.07;;
5923;SDS011;2987;50.884;14.818;2023-04-23T12:51:06;5.93;;;4.83;;
5923;SDS011;2987;50.884;14.818;2023-04-23T12:53:32;8.10;;;5.00;;
5923;SDS011;2987;50.884;14.818;2023-04-23T12:55:58;8.33;;;5.00;;
5923;SDS011;2987;50.884;14.818;2023-04-23T12:58:24;7.73;;;5.20;;
5923;SDS011;2987;50.884;14.818;2023-04-23T13:00:52;9.00;;;5.80;;
5923;SDS011;2987;50.884;14.818;2023-04-23T13:03:19;8.50;;;5.20;;
5923;SDS011;2987;50.884;14.818;2023-04-23T13:05:45;5.83;;;4.97;;
5923;SDS011;2987;50.884;14.818;2023-04-23T13:10:38;8.90;;;4.50;;
5923;SDS011;2987;50.884;14.818;2023-04-23T13:13:04;6.87;;;4.67;;
5923;SDS011;2987;50.884;14.818;2023-04-23T13:15:30;7.57;;;5.00;;
5923;SDS011;2987;50.884;14.818;2023-04-23T13:17:56;6.63;;;5.07;;
5923;SDS011;2987;50.884;14.818;2023-04-23T13:20:22;7.97;;;5.17;;
5923;SDS011;2987;50.884;14.818;2023-04-23T13:22:49;6.53;;;5.40;;
5923;SDS011;2987;50.884;14.818;2023-04-23T13:25:15;7.23;;;4.77;;
5923;SDS011;2987;50.884;14.818;2023-04-23T13:27:41;7.77;;;5.27;;
5923;SDS011;2987;50.884;14.818;2023-04-23T13:30:07;6.03;;;5.00;;
5923;SDS011;2987;50.884;14.818;2023-04-23T13:32:33;8.37;;;5.23;;
5923;SDS011;2987;50.884;14.818;2023-04-23T13:34:59;5.27;;;4.70;;
5923;SDS011;2987;50.884;14.818;2023-04-23T13:37:28;9.53;;;4.50;;
5923;SDS011;2987;50.884;14.818;2023-04-23T13:39:55;6.13;;;4.17;;
5923;SDS011;2987;50.884;14.818;2023-04-23T13:42:21;5.43;;;4.20;;
5923;SDS011;2987;50.884;14.818;2023-04-23T13:44:47;5.67;;;3.73;;
5923;SDS011;2987;50.884;14.818;2023-04-23T13:47:13;7.60;;;4.20;;
5923;SDS011;2987;50.884;14.818;2023-04-23T13:49:39;6.43;;;4.13;;
5923;SDS011;2987;50.884;14.818;2023-04-23T13:52:05;6.33;;;3.80;;
5923;SDS011;2987;50.884;14.818;2023-04-23T13:54:31;4.10;;;3.70;;
5923;SDS011;2987;50.884;14.818;2023-04-23T13:56:57;5.03;;;4.03;;
5923;SDS011;2987;50.884;14.818;2023-04-23T13:59:23;5.73;;;3.73;;
5923;SDS011;2987;50.884;14.818;2023-04-23T14:01:50;5.20;;;3.60;;
5923;SDS011;2987;50.884;14.818;2023-04-23T14:04:16;5.50;;;3.63;;
5923;SDS011;2987;50.884;14.818;2023-04-23T14:06:43;6.93;;;3.43;;
5923;SDS011;2987;50.884;14.818;2023-04-23T14:09:09;4.50;;;3.43;;
5923;SDS011;2987;50.884;14.818;2023-04-23T14:11:35;5.17;;;3.67;;
5923;SDS011;2987;50.884;14.818;2023-04-23T14:14:03;4.30;;;3.40;;
5923;SDS011;2987;50.884;14.818;2023-04-23T14:16:30;4.03;;;3.50;;
5923;SDS011;2987;50.884;14.818;2023-04-23T14:18:56;3.30;;;3.00;;
5923;SDS011;2987;50.884;14.818;2023-04-23T14:21:22;6.67;;;3.27;;
5923;SDS011;2987;50.884;14.818;2023-04-23T14:23:50;2.83;;;2.60;;
5923;SDS011;2987;50.884;14.818;2023-04-23T14:26:25;8.07;;;3.33;;
5923;SDS011;2987;50.884;14.818;2023-04-23T14:29:01;4.40;;;3.43;;
5923;SDS011;2987;50.884;14.818;2023-04-23T14:31:33;3.67;;;3.20;;
5923;SDS011;2987;50.884;14.818;2023-04-23T14:33:59;4.17;;;3.20;;
5923;SDS011;2987;50.884;14.818;2023-04-23T14:36:25;5.17;;;3.10;;
5923;SDS011;2987;50.884;14.818;2023-04-23T14:38:51;5.00;;;3.23;;
5923;SDS011;2987;50.884;14.818;2023-04-23T14:41:17;4.47;;;3.20;;
5923;SDS011;2987;50.884;14.818;2023-04-23T14:43:43;3.97;;;3.00;;
5923;SDS011;2987;50.884;14.818;2023-04-23T14:46:09;4.87;;;2.80;;
5923;SDS011;2987;50.884;14.818;2023-04-23T14:48:35;3.33;;;2.97;;
5923;SDS011;2987;50.884;14.818;2023-04-23T14:51:00;4.60;;;3.10;;
5923;SDS011;2987;50.884;14.818;2023-04-23T14:53:27;3.33;;;2.80;;
5923;SDS011;2987;50.884;14.818;2023-04-23T14:55:53;3.30;;;2.90;;
5923;SDS011;2987;50.884;14.818;2023-04-23T14:58:18;3.57;;;3.20;;
5923;SDS011;2987;50.884;14.818;2023-04-23T15:00:44;3.87;;;3.07;;
5923;SDS011;2987;50.884;14.818;2023-04-23T15:03:11;3.17;;;2.90;;
5923;SDS011;2987;50.884;14.818;2023-04-23T15:05:36;3.03;;;2.53;;
5923;SDS011;2987;50.884;14.818;2023-04-23T15:08:04;4.53;;;3.13;;
5923;SDS011;2987;50.884;14.818;2023-04-23T15:10:30;3.43;;;2.87;;
5923;SDS011;2987;50.884;14.818;2023-04-23T15:18:29;4.23;;;2.80;;
5923;SDS011;2987;50.884;14.818;2023-04-23T15:20:58;2.93;;;2.60;;
5923;SDS011;2987;50.884;14.818;2023-04-23T15:23:29;3.60;;;2.50;;
5923;SDS011;2987;50.884;14.818;2023-04-23T15:25:56;3.73;;;2.70;;
5923;SDS011;2987;50.884;14.818;2023-04-23T15:28:22;2.73;;;2.53;;
5923;SDS011;2987;50.884;14.818;2023-04-23T15:30:49;3.00;;;2.30;;
5923;SDS011;2987;50.884;14.818;2023-04-23T15:33:15;4.07;;;2.37;;
5923;SDS011;2987;50.884;14.818;2023-04-23T15:35:46;3.10;;;2.77;;